createdAt,value
2023-03-14T00:01:10.984Z,50.74
2023-03-14T00:03:37.313Z,50.91
2023-03-14T00:06:04.175Z,50.90
2023-03-14T00:08:30.497Z,51.00
2023-03-14T00:10:58.589Z,50.81
2023-03-14T00:13:25.204Z,50.81
2023-03-14T00:15:51.556Z,50.93
2023-03-14T00:18:17.912Z,50.83
2023-03-14T00:20:44.240Z,50.90
2023-03-14T00:23:10.552Z,50.81
2023-03-14T00:25:36.890Z,50.78
2023-03-14T00:28:03.202Z,50.87
2023-03-14T00:30:29.536Z,50.77
2023-03-14T00:32:55.914Z,50.74
2023-03-14T00:35:22.899Z,50.79
2023-03-14T00:37:49.232Z,50.74
2023-03-14T00:40:15.615Z,50.70
2023-03-14T00:42:41.937Z,50.78
2023-03-14T00:45:09.774Z,50.80
2023-03-14T00:47:36.104Z,50.89
2023-03-14T00:50:02.497Z,50.70
2023-03-14T00:52:28.896Z,50.71
2023-03-14T00:54:55.252Z,50.70
2023-03-14T00:57:21.572Z,50.61
2023-03-14T00:59:47.946Z,50.70
2023-03-14T01:02:14.323Z,50.82
2023-03-14T01:04:40.749Z,50.63
2023-03-14T01:07:07.080Z,50.65
2023-03-14T01:09:33.475Z,50.60
2023-03-14T01:11:59.848Z,50.58
2023-03-14T01:14:26.404Z,50.60
2023-03-14T01:16:52.760Z,50.54
2023-03-14T01:19:20.065Z,50.88
2023-03-14T01:21:46.394Z,50.59
2023-03-14T01:24:13.040Z,50.74
2023-03-14T01:26:39.904Z,50.60
2023-03-14T01:29:08.055Z,50.72
2023-03-14T01:31:37.004Z,50.52
2023-03-14T01:34:03.384Z,50.54
2023-03-14T01:36:31.702Z,50.44
2023-03-14T01:38:59.544Z,50.52
2023-03-14T01:41:26.357Z,50.55
2023-03-14T01:43:54.412Z,50.49
2023-03-14T01:46:34.077Z,50.50
2023-03-14T01:49:08.136Z,50.52
2023-03-14T01:51:36.682Z,50.60
2023-03-14T01:54:05.443Z,50.53
2023-03-14T01:56:31.848Z,50.56
2023-03-14T01:58:58.640Z,50.46
2023-03-14T02:01:25.474Z,50.59
2023-03-14T02:03:53.879Z,50.47
2023-03-14T02:06:21.055Z,50.40
2023-03-14T02:08:50.407Z,50.64
2023-03-14T02:11:20.740Z,50.47
2023-03-14T02:14:32.675Z,50.49
2023-03-14T02:17:18.890Z,50.40
2023-03-14T02:20:14.863Z,50.26
2023-03-14T02:22:43.582Z,50.30
2023-03-14T02:25:22.932Z,50.35
2023-03-14T02:27:49.556Z,50.38
2023-03-14T02:30:17.208Z,50.36
2023-03-14T02:32:47.300Z,50.44
2023-03-14T02:35:15.516Z,50.33
2023-03-14T02:37:43.505Z,50.37
2023-03-14T02:40:10.773Z,50.28
2023-03-14T02:42:38.641Z,50.44
2023-03-14T02:45:10.729Z,50.35
2023-03-14T02:47:43.374Z,50.25
2023-03-14T02:50:10.792Z,50.27
2023-03-14T02:52:37.175Z,50.37
2023-03-14T02:55:04.432Z,50.29
2023-03-14T02:57:31.928Z,50.45
2023-03-14T03:00:01.379Z,50.29
2023-03-14T03:02:32.074Z,50.38
2023-03-14T03:04:58.973Z,50.34
2023-03-14T03:07:25.333Z,50.26
2023-03-14T03:09:54.655Z,50.20
2023-03-14T03:12:20.982Z,50.28
2023-03-14T03:14:47.387Z,50.19
2023-03-14T03:17:15.134Z,50.23
2023-03-14T03:19:41.516Z,50.31
2023-03-14T03:22:10.014Z,50.13
2023-03-14T03:24:36.340Z,50.30
2023-03-14T03:27:02.679Z,50.28
2023-03-14T03:29:29.119Z,50.19
2023-03-14T03:31:55.622Z,50.30
2023-03-14T03:34:21.972Z,50.17
2023-03-14T03:36:51.376Z,50.28
2023-03-14T03:39:17.802Z,50.25
2023-03-14T03:41:47.270Z,50.24
2023-03-14T03:44:14.463Z,50.26
2023-03-14T03:46:41.115Z,50.24
2023-03-14T03:49:08.500Z,50.27
2023-03-14T03:51:34.866Z,50.01
2023-03-14T03:54:01.392Z,49.98
2023-03-14T03:56:33.212Z,49.72
2023-03-14T03:59:00.139Z,49.71
2023-03-14T04:01:26.490Z,49.60
2023-03-14T04:03:55.884Z,49.44
2023-03-14T04:06:22.380Z,49.51
2023-03-14T04:08:50.295Z,49.42
2023-03-14T04:11:39.804Z,49.38
2023-03-14T04:14:20.974Z,49.45
2023-03-14T04:16:49.279Z,49.63
2023-03-14T04:19:18.960Z,49.86
2023-03-14T04:21:47.854Z,50.14
2023-03-14T04:24:14.182Z,50.05
2023-03-14T04:26:42.267Z,50.08
2023-03-14T04:29:12.225Z,50.11
2023-03-14T04:31:40.250Z,50.10
2023-03-14T04:34:06.597Z,50.23
2023-03-14T04:36:39.704Z,50.24
2023-03-14T04:39:09.523Z,50.25
2023-03-14T04:41:39.438Z,50.32
2023-03-14T04:44:06.434Z,50.32
2023-03-14T04:46:34.021Z,50.44
2023-03-14T04:49:03.603Z,50.22
2023-03-14T04:51:30.067Z,50.28
2023-03-14T04:53:56.470Z,50.30
2023-03-14T04:56:23.149Z,50.23
2023-03-14T04:58:49.508Z,50.36
2023-03-14T05:01:18.723Z,50.23
2023-03-14T05:04:03.962Z,50.10
2023-03-14T05:06:44.185Z,50.20
2023-03-14T05:09:42.819Z,50.14
2023-03-14T05:12:27.927Z,50.16
2023-03-14T05:14:59.734Z,50.20
2023-03-14T05:17:40.228Z,50.23
2023-03-14T05:20:24.022Z,50.18
2023-03-14T05:22:56.639Z,50.13
2023-03-14T05:25:43.519Z,50.10
2023-03-14T05:28:17.708Z,50.21
2023-03-14T05:30:51.756Z,50.21
2023-03-14T05:33:41.251Z,50.20
2023-03-14T05:36:14.191Z,50.00
2023-03-14T05:38:54.712Z,50.04
2023-03-14T05:41:32.291Z,50.04
2023-03-14T05:44:21.556Z,49.95
2023-03-14T05:47:06.650Z,49.99
2023-03-14T05:49:49.579Z,49.91
2023-03-14T05:52:34.639Z,49.89
2023-03-14T05:55:16.696Z,49.95
2023-03-14T05:57:54.256Z,49.93
2023-03-14T06:00:35.200Z,49.89
2023-03-14T06:03:14.454Z,49.73
2023-03-14T06:05:44.750Z,49.73
2023-03-14T06:08:11.261Z,49.51
2023-03-14T06:10:38.443Z,48.43
2023-03-14T06:13:04.776Z,48.16
2023-03-14T06:15:33.957Z,48.20
2023-03-14T06:18:00.321Z,48.95
2023-03-14T06:20:27.400Z,48.92
2023-03-14T06:22:54.170Z,49.09
2023-03-14T06:25:20.523Z,50.08
2023-03-14T06:27:48.368Z,50.08
2023-03-14T06:30:15.916Z,50.58
2023-03-14T06:32:42.320Z,50.59
2023-03-14T06:35:11.902Z,49.62
2023-03-14T06:37:41.137Z,49.16
2023-03-14T06:40:08.295Z,48.90
2023-03-14T06:42:49.693Z,48.79
2023-03-14T06:45:17.740Z,48.78
2023-03-14T06:47:44.288Z,49.17
2023-03-14T06:50:11.260Z,49.83
2023-03-14T06:52:38.240Z,50.25
2023-03-14T06:55:04.713Z,49.08
2023-03-14T06:57:31.476Z,48.37
2023-03-14T06:59:57.957Z,47.74
2023-03-14T07:02:35.995Z,47.54
2023-03-14T07:05:11.854Z,46.83
2023-03-14T07:07:38.340Z,46.43
2023-03-14T07:10:04.762Z,46.19
2023-03-14T07:12:31.140Z,46.06
2023-03-14T07:14:59.074Z,45.55
2023-03-14T07:17:29.687Z,46.46
2023-03-14T07:19:56.779Z,45.62
2023-03-14T07:22:23.900Z,45.44
2023-03-14T07:24:50.217Z,45.05
2023-03-14T07:27:16.608Z,44.67
2023-03-14T07:29:43.170Z,44.56
2023-03-14T07:32:09.524Z,44.06
2023-03-14T07:34:36.128Z,44.28
2023-03-14T07:37:02.477Z,44.04
2023-03-14T07:39:28.980Z,43.90
2023-03-14T07:42:01.574Z,43.85
2023-03-14T07:44:48.285Z,44.23
2023-03-14T07:47:14.608Z,44.28
2023-03-14T07:49:40.930Z,45.27
2023-03-14T07:52:07.405Z,45.43
2023-03-14T07:54:33.726Z,45.68
2023-03-14T07:57:01.627Z,45.84
2023-03-14T07:59:28.258Z,46.29
2023-03-14T08:01:54.579Z,46.32
2023-03-14T08:04:20.919Z,46.25
2023-03-14T08:06:47.257Z,46.17
2023-03-14T08:09:13.588Z,46.28
2023-03-14T08:11:39.925Z,46.47
2023-03-14T08:14:06.266Z,46.33
2023-03-14T08:16:32.684Z,46.48
2023-03-14T08:18:59.097Z,46.34
2023-03-14T08:21:25.421Z,46.33
2023-03-14T08:23:51.769Z,46.42
2023-03-14T08:26:18.080Z,46.36
2023-03-14T08:28:44.417Z,46.63
2023-03-14T08:31:10.973Z,46.97
2023-03-14T08:33:37.442Z,46.98
2023-03-14T08:36:03.851Z,46.96
2023-03-14T08:38:30.212Z,47.01
2023-03-14T08:40:57.549Z,46.92
2023-03-14T08:43:23.864Z,46.77
2023-03-14T08:45:50.198Z,46.81
2023-03-14T08:48:16.567Z,46.82
2023-03-14T08:50:42.896Z,46.61
2023-03-14T08:53:09.827Z,46.90
2023-03-14T08:55:36.224Z,46.51
2023-03-14T08:58:02.568Z,46.07
2023-03-14T09:00:28.908Z,46.39
2023-03-14T09:02:55.257Z,46.55
2023-03-14T09:05:21.608Z,46.79
2023-03-14T09:07:47.986Z,47.01
2023-03-14T09:10:14.323Z,46.50
2023-03-14T09:12:40.648Z,46.40
2023-03-14T09:15:07.270Z,46.34
2023-03-14T09:17:33.619Z,46.45
2023-03-14T09:20:00.706Z,46.58
2023-03-14T09:22:27.147Z,46.08
2023-03-14T09:24:53.479Z,46.32
2023-03-14T09:27:19.802Z,45.84
2023-03-14T09:29:46.145Z,46.75
2023-03-14T09:32:12.453Z,46.59
2023-03-14T09:34:38.852Z,46.62
2023-03-14T09:37:05.191Z,46.19
2023-03-14T09:39:31.504Z,45.74
2023-03-14T09:41:58.728Z,45.49
2023-03-14T09:44:25.827Z,45.56
2023-03-14T09:46:53.093Z,45.46
2023-03-14T09:49:23.086Z,45.66
2023-03-14T09:51:50.161Z,46.18
2023-03-14T09:54:43.001Z,46.11
2023-03-14T09:57:13.650Z,45.74
2023-03-14T09:59:39.991Z,45.13
2023-03-14T10:02:13.295Z,45.29
2023-03-14T10:04:42.466Z,44.67
2023-03-14T10:07:10.739Z,44.62
2023-03-14T10:09:37.856Z,44.86
2023-03-14T10:12:10.302Z,44.75
2023-03-14T10:14:37.448Z,45.02
2023-03-14T10:17:08.152Z,45.69
2023-03-14T10:19:36.569Z,45.88
2023-03-14T10:22:03.944Z,46.02
2023-03-14T10:24:31.095Z,45.90
2023-03-14T10:27:06.797Z,45.99
2023-03-14T10:29:33.758Z,45.91
2023-03-14T10:32:03.746Z,45.92
2023-03-14T10:34:36.642Z,46.01
2023-03-14T10:37:16.927Z,45.82
2023-03-14T10:39:46.458Z,45.92
2023-03-14T10:42:14.602Z,45.83
2023-03-14T10:44:41.021Z,45.58
2023-03-14T10:47:07.385Z,45.82
2023-03-14T10:49:34.627Z,45.56
2023-03-14T10:52:13.611Z,45.56
2023-03-14T10:54:39.963Z,45.72
2023-03-14T10:57:07.231Z,45.84
2023-03-14T10:59:35.885Z,45.90
2023-03-14T11:02:18.656Z,45.83
2023-03-14T11:05:05.517Z,45.69
2023-03-14T11:07:39.890Z,45.94
2023-03-14T11:10:25.001Z,45.44
2023-03-14T11:13:09.912Z,45.52
2023-03-14T11:15:41.840Z,45.80
2023-03-14T11:18:08.194Z,45.92
2023-03-14T11:20:45.682Z,45.75
2023-03-14T11:23:19.163Z,45.73
2023-03-14T11:25:51.685Z,45.75
2023-03-14T11:28:21.041Z,46.05
2023-03-14T11:30:51.128Z,46.29
2023-03-14T11:33:18.260Z,46.19
2023-03-14T11:36:03.479Z,46.10
2023-03-14T11:38:30.943Z,45.78
2023-03-14T11:40:58.022Z,45.22
2023-03-14T11:43:28.489Z,45.52
2023-03-14T11:46:38.314Z,45.11
2023-03-14T11:49:05.096Z,45.37
2023-03-14T11:51:35.457Z,44.55
2023-03-14T11:54:18.557Z,44.75
2023-03-14T11:56:50.185Z,44.79
2023-03-14T11:59:24.271Z,44.74
2023-03-14T12:01:52.981Z,44.59
2023-03-14T12:04:39.723Z,44.58
2023-03-14T12:07:09.727Z,44.70
2023-03-14T12:09:36.057Z,44.95
2023-03-14T12:12:03.177Z,44.83
2023-03-14T12:14:30.560Z,44.85
2023-03-14T12:16:58.249Z,44.98
2023-03-14T12:19:24.553Z,44.96
2023-03-14T12:22:01.779Z,44.94
2023-03-14T12:24:32.977Z,45.33
2023-03-14T12:27:00.379Z,45.15
2023-03-14T12:29:26.716Z,45.08
2023-03-14T12:32:01.851Z,45.26
2023-03-14T12:34:29.005Z,45.76
2023-03-14T12:36:57.102Z,45.61
2023-03-14T12:39:24.420Z,45.52
2023-03-14T12:41:54.347Z,45.64
2023-03-14T12:44:29.521Z,45.56
2023-03-14T12:46:57.690Z,45.75
2023-03-14T12:49:29.824Z,45.72
2023-03-14T12:51:59.902Z,45.88
2023-03-14T12:54:39.836Z,45.76
2023-03-14T12:57:09.153Z,45.82
2023-03-14T12:59:36.279Z,45.97
2023-03-14T13:02:09.636Z,45.85
2023-03-14T13:04:40.349Z,45.76
2023-03-14T13:07:11.263Z,46.09
2023-03-14T13:09:46.955Z,46.30
2023-03-14T13:12:14.405Z,46.45
2023-03-14T13:14:50.316Z,46.30
2023-03-14T13:17:34.119Z,46.36
2023-03-14T13:20:02.574Z,45.97
2023-03-14T13:22:29.682Z,46.06
2023-03-14T13:25:06.489Z,46.04
2023-03-14T13:27:33.265Z,46.30
2023-03-14T13:29:59.805Z,46.13
2023-03-14T13:32:29.807Z,46.02
2023-03-14T13:34:56.899Z,46.23
2023-03-14T13:37:23.832Z,46.27
2023-03-14T13:39:51.176Z,46.36
2023-03-14T13:42:17.515Z,46.35
2023-03-14T13:44:43.845Z,46.30
2023-03-14T13:47:17.209Z,46.38
2023-03-14T13:49:43.558Z,46.43
2023-03-14T13:52:28.674Z,46.36
2023-03-14T13:54:58.889Z,46.43
2023-03-14T13:57:25.251Z,46.16
2023-03-14T14:00:02.016Z,46.60
2023-03-14T14:02:31.058Z,46.45
2023-03-14T14:04:57.507Z,46.89
2023-03-14T14:07:23.850Z,46.85
2023-03-14T14:09:50.665Z,46.43
2023-03-14T14:12:22.588Z,46.42
2023-03-14T14:14:54.766Z,46.31
2023-03-14T14:17:23.149Z,46.44
2023-03-14T14:19:49.467Z,46.35
2023-03-14T14:22:15.790Z,46.75
2023-03-14T14:24:42.128Z,46.83
2023-03-14T14:27:15.378Z,47.08
2023-03-14T14:29:41.731Z,47.09
2023-03-14T14:32:07.980Z,46.99
2023-03-14T14:34:41.405Z,46.95
2023-03-14T14:37:22.786Z,47.26
2023-03-14T14:39:49.511Z,47.26
2023-03-14T14:42:17.052Z,47.05
2023-03-14T14:44:43.466Z,47.00
2023-03-14T14:47:12.798Z,47.11
2023-03-14T14:49:39.594Z,47.07
2023-03-14T14:52:15.620Z,47.42
2023-03-14T14:54:46.883Z,47.17
2023-03-14T14:57:20.335Z,47.12
2023-03-14T14:59:48.821Z,46.86
2023-03-14T15:02:33.599Z,46.77
2023-03-14T15:05:00.179Z,46.40
2023-03-14T15:07:28.224Z,46.58
2023-03-14T15:09:54.672Z,46.66
2023-03-14T15:12:21.689Z,46.62
2023-03-14T15:14:48.212Z,46.83
2023-03-14T15:17:15.132Z,46.94
2023-03-14T15:19:41.478Z,46.49
2023-03-14T15:22:12.783Z,46.90
2023-03-14T15:24:39.171Z,46.88
2023-03-14T15:27:06.314Z,47.08
2023-03-14T15:29:32.645Z,47.06
2023-03-14T15:31:59.237Z,47.20
2023-03-14T15:34:25.596Z,46.80
2023-03-14T15:36:52.002Z,46.73
2023-03-14T15:39:18.344Z,46.73
2023-03-14T15:41:44.676Z,46.86
2023-03-14T15:44:11.019Z,46.82
2023-03-14T15:46:37.356Z,47.10
2023-03-14T15:49:03.750Z,47.05
2023-03-14T15:51:30.118Z,46.97
2023-03-14T15:53:56.460Z,47.20
2023-03-14T15:56:25.847Z,47.03
2023-03-14T15:58:52.440Z,47.21
2023-03-14T16:01:18.868Z,47.01
2023-03-14T16:03:45.891Z,47.27
2023-03-14T16:06:12.536Z,47.05
2023-03-14T16:08:38.903Z,47.04
2023-03-14T16:11:06.017Z,47.09
2023-03-14T16:13:32.346Z,46.70
2023-03-14T16:15:59.357Z,46.55
2023-03-14T16:18:25.713Z,46.66
2023-03-14T16:20:52.662Z,46.40
2023-03-14T16:23:18.983Z,46.41
2023-03-14T16:25:45.313Z,46.64
2023-03-14T16:28:11.763Z,46.58
2023-03-14T16:30:38.103Z,46.55
2023-03-14T16:33:12.050Z,46.73
2023-03-14T16:35:39.281Z,46.67
2023-03-14T16:38:05.687Z,46.46
2023-03-14T16:40:32.147Z,46.48
2023-03-14T16:43:14.933Z,46.78
2023-03-14T16:45:42.242Z,46.37
2023-03-14T16:48:08.591Z,46.61
2023-03-14T16:50:34.935Z,46.61
2023-03-14T16:53:02.096Z,46.41
2023-03-14T16:55:28.495Z,46.83
2023-03-14T16:57:54.827Z,46.45
2023-03-14T17:00:22.231Z,46.71
2023-03-14T17:02:48.593Z,46.53
2023-03-14T17:05:14.950Z,46.62
2023-03-14T17:07:41.320Z,47.11
2023-03-14T17:10:07.702Z,47.19
2023-03-14T17:12:34.041Z,47.16
2023-03-14T17:15:00.452Z,47.27
2023-03-14T17:17:26.863Z,47.26
2023-03-14T17:19:53.269Z,46.99
2023-03-14T17:22:23.805Z,47.43
2023-03-14T17:24:51.043Z,47.01
2023-03-14T17:27:20.079Z,47.43
2023-03-14T17:29:49.698Z,47.39
2023-03-14T17:32:16.143Z,47.51
2023-03-14T17:34:42.492Z,47.11
2023-03-14T17:37:08.850Z,47.24
2023-03-14T17:39:35.281Z,47.54
2023-03-14T17:42:01.627Z,47.26
2023-03-14T17:44:28.022Z,47.40
2023-03-14T17:46:55.509Z,47.23
2023-03-14T17:49:21.868Z,47.30
2023-03-14T17:51:48.197Z,47.24
2023-03-14T17:54:14.539Z,47.21
2023-03-14T17:56:43.845Z,47.43
2023-03-14T17:59:10.930Z,47.48
2023-03-14T18:01:37.370Z,47.76
2023-03-14T18:04:03.855Z,47.53
2023-03-14T18:06:31.439Z,47.60
2023-03-14T18:08:58.443Z,47.74
2023-03-14T18:11:25.190Z,47.50
2023-03-14T18:13:51.595Z,47.95
2023-03-14T18:16:18.079Z,47.37
2023-03-14T18:18:47.067Z,47.31
2023-03-14T18:21:14.866Z,47.25
2023-03-14T18:23:41.422Z,47.43
2023-03-14T18:26:07.765Z,47.51
2023-03-14T18:28:34.092Z,47.38
2023-03-14T18:31:01.200Z,47.43
2023-03-14T18:33:27.572Z,47.45
2023-03-14T18:35:53.948Z,46.42
2023-03-14T18:38:20.317Z,45.50
2023-03-14T18:40:46.731Z,45.02
2023-03-14T18:43:13.075Z,44.74
2023-03-14T18:45:39.431Z,44.13
2023-03-14T18:48:05.835Z,44.32
2023-03-14T18:50:32.160Z,43.91
2023-03-14T18:53:01.740Z,44.00
2023-03-14T18:55:28.077Z,43.57
2023-03-14T18:57:54.396Z,45.00
2023-03-14T19:00:20.820Z,44.55
2023-03-14T19:02:47.125Z,44.80
2023-03-14T19:05:13.469Z,44.76
2023-03-14T19:07:39.782Z,44.02
2023-03-14T19:10:06.215Z,43.78
2023-03-14T19:12:32.585Z,43.64
2023-03-14T19:14:58.919Z,43.00
2023-03-14T19:17:25.278Z,43.15
2023-03-14T19:19:52.762Z,43.11
2023-03-14T19:22:19.100Z,43.07
2023-03-14T19:24:45.447Z,43.11
2023-03-14T19:27:11.894Z,43.15
2023-03-14T19:29:42.150Z,43.72
2023-03-14T19:32:09.366Z,43.61
2023-03-14T19:34:35.718Z,43.70
2023-03-14T19:37:02.082Z,44.04
2023-03-14T19:39:28.408Z,44.85
2023-03-14T19:41:58.043Z,45.06
2023-03-14T19:44:24.688Z,45.01
2023-03-14T19:46:51.000Z,45.06
2023-03-14T19:49:17.358Z,45.15
2023-03-14T19:51:43.720Z,45.04
2023-03-14T19:54:10.092Z,45.28
2023-03-14T19:56:38.071Z,45.26
2023-03-14T19:59:04.388Z,45.40
2023-03-14T20:01:31.535Z,45.47
2023-03-14T20:03:57.957Z,45.96
2023-03-14T20:06:24.286Z,45.86
2023-03-14T20:08:50.785Z,45.74
2023-03-14T20:11:17.290Z,45.23
2023-03-14T20:13:44.515Z,45.56
2023-03-14T20:16:10.934Z,45.72
2023-03-14T20:18:37.321Z,45.44
2023-03-14T20:21:07.283Z,45.72
2023-03-14T20:23:33.677Z,45.87
2023-03-14T20:26:00.077Z,46.02
2023-03-14T20:28:26.440Z,45.85
2023-03-14T20:30:52.915Z,46.09
2023-03-14T20:33:19.808Z,46.09
2023-03-14T20:35:46.569Z,45.97
2023-03-14T20:38:12.940Z,45.97
2023-03-14T20:40:39.367Z,46.07
2023-03-14T20:43:05.686Z,46.07
2023-03-14T20:45:32.035Z,46.31
2023-03-14T20:47:58.381Z,45.88
2023-03-14T20:50:24.753Z,46.27
2023-03-14T20:52:51.128Z,46.06
2023-03-14T20:55:17.540Z,46.34
2023-03-14T20:57:43.917Z,46.66
2023-03-14T21:00:10.445Z,46.39
2023-03-14T21:02:36.785Z,46.68
2023-03-14T21:05:03.519Z,46.24
2023-03-14T21:07:31.074Z,46.61
2023-03-14T21:09:57.390Z,46.77
2023-03-14T21:12:23.714Z,46.79
2023-03-14T21:14:50.040Z,46.80
2023-03-14T21:17:16.376Z,46.85
2023-03-14T21:19:45.562Z,46.59
2023-03-14T21:22:18.229Z,46.67
2023-03-14T21:24:45.117Z,46.67
2023-03-14T21:27:12.309Z,46.73
2023-03-14T21:29:38.643Z,46.79
2023-03-14T21:32:05.003Z,47.11
2023-03-14T21:34:31.324Z,47.05
2023-03-14T21:36:57.649Z,47.01
2023-03-14T21:39:23.979Z,47.27
2023-03-14T21:41:50.309Z,47.14
2023-03-14T21:44:18.938Z,47.40
2023-03-14T21:46:46.010Z,47.33
2023-03-14T21:49:15.230Z,47.51
2023-03-14T21:51:45.748Z,47.58
2023-03-14T21:54:15.405Z,47.59
2023-03-14T21:56:41.898Z,47.64
2023-03-14T21:59:08.266Z,47.59
2023-03-14T22:01:34.963Z,47.64
2023-03-14T22:04:01.309Z,47.44
2023-03-14T22:06:27.834Z,47.55
2023-03-14T22:08:55.296Z,47.49
2023-03-14T22:11:24.287Z,47.28
2023-03-14T22:13:50.627Z,47.21
2023-03-14T22:16:16.993Z,47.19
2023-03-14T22:18:43.335Z,47.16
2023-03-14T22:21:09.696Z,47.28
2023-03-14T22:23:36.024Z,47.20
2023-03-14T22:26:02.391Z,47.16
2023-03-14T22:28:28.767Z,46.99
2023-03-14T22:30:55.103Z,47.00
2023-03-14T22:33:21.837Z,46.92
2023-03-14T22:35:51.247Z,46.94
2023-03-14T22:38:17.580Z,46.97
2023-03-14T22:40:43.906Z,46.95
2023-03-14T22:43:10.244Z,46.86
2023-03-14T22:45:36.639Z,46.82
2023-03-14T22:48:03.012Z,46.96
2023-03-14T22:50:29.367Z,46.94
2023-03-14T22:52:58.196Z,46.79
2023-03-14T22:55:24.542Z,46.91
2023-03-14T22:57:51.627Z,46.80
2023-03-14T23:00:18.025Z,46.70
2023-03-14T23:02:44.759Z,46.77
2023-03-14T23:05:11.124Z,46.59
2023-03-14T23:07:37.481Z,46.66
2023-03-14T23:10:03.925Z,46.59
2023-03-14T23:12:30.274Z,46.62
2023-03-14T23:14:56.603Z,46.69
2023-03-14T23:17:25.433Z,46.49
2023-03-14T23:19:53.430Z,46.48
2023-03-14T23:22:19.764Z,46.57
2023-03-14T23:24:48.576Z,46.69
2023-03-14T23:27:15.711Z,46.94
2023-03-14T23:29:42.041Z,46.79
2023-03-14T23:32:08.373Z,46.84
2023-03-14T23:34:37.378Z,46.77
2023-03-14T23:37:04.935Z,46.88
2023-03-14T23:39:31.267Z,46.83
2023-03-14T23:41:57.584Z,46.98
2023-03-14T23:44:26.380Z,46.98
2023-03-14T23:46:53.188Z,47.13
2023-03-14T23:49:19.622Z,47.04
2023-03-14T23:51:45.954Z,47.05
2023-03-14T23:54:12.264Z,47.07
2023-03-14T23:56:40.435Z,47.06
2023-03-14T23:59:06.988Z,47.07
